sensor_id;sensor_type;location;lat;lon;timestamp;temperature;humidity
18894;DHT22;9579;49.488;8.226;2023-10-19T00:01:14;13.10;99.90
18894;DHT22;9579;49.488;8.226;2023-10-19T00:04:02;13.00;99.90
18894;DHT22;9579;49.488;8.226;2023-10-19T00:06:48;13.00;99.90
18894;DHT22;9579;49.488;8.226;2023-10-19T00:09:35;13.00;99.90
18894;DHT22;9579;49.488;8.226;2023-10-19T00:12:23;13.00;99.90
18894;DHT22;9579;49.488;8.226;2023-10-19T00:15:12;13.10;99.90
18894;DHT22;9579;49.488;8.226;2023-10-19T00:17:58;12.90;99.90
18894;DHT22;9579;49.488;8.226;2023-10-19T00:20:55;13.00;99.90
18894;DHT22;9579;49.488;8.226;2023-10-19T00:23:58;12.90;99.90
18894;DHT22;9579;49.488;8.226;2023-10-19T00:26:49;13.00;99.90
18894;DHT22;9579;49.488;8.226;2023-10-19T00:29:39;12.90;99.90
18894;DHT22;9579;49.488;8.226;2023-10-19T00:32:28;12.70;99.90
18894;DHT22;9579;49.488;8.226;2023-10-19T00:35:15;12.70;99.90
18894;DHT22;9579;49.488;8.226;2023-10-19T00:38:14;12.80;99.90
18894;DHT22;9579;49.488;8.226;2023-10-19T00:41:16;13.00;99.90
18894;DHT22;9579;49.488;8.226;2023-10-19T00:44:07;13.00;99.90
18894;DHT22;9579;49.488;8.226;2023-10-19T00:46:56;12.90;99.90
18894;DHT22;9579;49.488;8.226;2023-10-19T00:49:50;12.90;99.90
18894;DHT22;9579;49.488;8.226;2023-10-19T00:52:39;12.70;99.90
18894;DHT22;9579;49.488;8.226;2023-10-19T00:55:30;12.80;99.90
18894;DHT22;9579;49.488;8.226;2023-10-19T00:58:28;12.80;99.90
18894;DHT22;9579;49.488;8.226;2023-10-19T01:01:26;12.90;99.90
18894;DHT22;9579;49.488;8.226;2023-10-19T01:04:17;12.90;99.90
18894;DHT22;9579;49.488;8.226;2023-10-19T01:07:10;12.90;99.90
18894;DHT22;9579;49.488;8.226;2023-10-19T01:10:02;12.90;99.90
18894;DHT22;9579;49.488;8.226;2023-10-19T01:12:51;12.90;99.90
18894;DHT22;9579;49.488;8.226;2023-10-19T01:15:38;12.90;99.90
18894;DHT22;9579;49.488;8.226;2023-10-19T01:18:26;12.80;99.90
18894;DHT22;9579;49.488;8.226;2023-10-19T01:21:15;12.80;99.90
18894;DHT22;9579;49.488;8.226;2023-10-19T01:24:08;12.90;99.90
18894;DHT22;9579;49.488;8.226;2023-10-19T01:26:58;12.80;99.90
18894;DHT22;9579;49.488;8.226;2023-10-19T01:29:45;12.90;99.90
18894;DHT22;9579;49.488;8.226;2023-10-19T01:32:32;12.90;99.90
18894;DHT22;9579;49.488;8.226;2023-10-19T01:35:19;12.90;99.90
18894;DHT22;9579;49.488;8.226;2023-10-19T01:38:07;12.90;99.90
18894;DHT22;9579;49.488;8.226;2023-10-19T01:40:55;12.90;99.90
18894;DHT22;9579;49.488;8.226;2023-10-19T01:43:46;12.90;99.90
18894;DHT22;9579;49.488;8.226;2023-10-19T01:46:34;12.90;99.90
18894;DHT22;9579;49.488;8.226;2023-10-19T01:49:22;12.80;99.90
18894;DHT22;9579;49.488;8.226;2023-10-19T01:52:12;12.80;99.90
18894;DHT22;9579;49.488;8.226;2023-10-19T01:54:59;13.00;99.90
18894;DHT22;9579;49.488;8.226;2023-10-19T01:57:54;13.00;99.90
18894;DHT22;9579;49.488;8.226;2023-10-19T02:00:42;13.10;99.90
18894;DHT22;9579;49.488;8.226;2023-10-19T02:03:29;13.20;99.90
18894;DHT22;9579;49.488;8.226;2023-10-19T02:06:18;13.20;99.90
18894;DHT22;9579;49.488;8.226;2023-10-19T02:09:06;13.20;99.90
18894;DHT22;9579;49.488;8.226;2023-10-19T02:12:03;13.20;99.90
18894;DHT22;9579;49.488;8.226;2023-10-19T02:14:52;13.20;99.90
18894;DHT22;9579;49.488;8.226;2023-10-19T02:17:40;13.20;99.90
18894;DHT22;9579;49.488;8.226;2023-10-19T02:20:27;13.20;99.90
18894;DHT22;9579;49.488;8.226;2023-10-19T02:23:14;13.10;99.90
18894;DHT22;9579;49.488;8.226;2023-10-19T02:26:01;13.00;99.90
18894;DHT22;9579;49.488;8.226;2023-10-19T02:28:49;13.00;99.90
18894;DHT22;9579;49.488;8.226;2023-10-19T02:31:39;13.00;99.90
18894;DHT22;9579;49.488;8.226;2023-10-19T02:34:26;13.20;99.90
18894;DHT22;9579;49.488;8.226;2023-10-19T02:37:12;13.30;99.90
18894;DHT22;9579;49.488;8.226;2023-10-19T02:39:59;13.30;99.90
18894;DHT22;9579;49.488;8.226;2023-10-19T02:42:46;13.40;99.90
18894;DHT22;9579;49.488;8.226;2023-10-19T02:45:34;13.60;99.90
18894;DHT22;9579;49.488;8.226;2023-10-19T02:48:24;13.70;99.90
18894;DHT22;9579;49.488;8.226;2023-10-19T02:51:11;13.80;99.90
18894;DHT22;9579;49.488;8.226;2023-10-19T02:53:58;13.80;99.90
18894;DHT22;9579;49.488;8.226;2023-10-19T02:56:48;13.90;99.90
18894;DHT22;9579;49.488;8.226;2023-10-19T02:59:37;14.00;99.90
18894;DHT22;9579;49.488;8.226;2023-10-19T03:02:24;14.00;99.90
18894;DHT22;9579;49.488;8.226;2023-10-19T03:05:13;14.10;99.90
18894;DHT22;9579;49.488;8.226;2023-10-19T03:08:01;14.10;99.90
18894;DHT22;9579;49.488;8.226;2023-10-19T03:10:51;14.20;99.90
18894;DHT22;9579;49.488;8.226;2023-10-19T03:13:49;14.20;99.90
18894;DHT22;9579;49.488;8.226;2023-10-19T03:16:40;14.10;99.90
18894;DHT22;9579;49.488;8.226;2023-10-19T03:19:27;14.10;99.90
18894;DHT22;9579;49.488;8.226;2023-10-19T03:22:16;14.10;99.90
18894;DHT22;9579;49.488;8.226;2023-10-19T03:25:06;14.10;99.90
18894;DHT22;9579;49.488;8.226;2023-10-19T03:28:21;14.10;99.90
18894;DHT22;9579;49.488;8.226;2023-10-19T03:31:11;14.00;99.90
18894;DHT22;9579;49.488;8.226;2023-10-19T03:34:03;14.10;99.90
18894;DHT22;9579;49.488;8.226;2023-10-19T03:36:52;14.00;99.90
18894;DHT22;9579;49.488;8.226;2023-10-19T03:39:42;13.90;99.90
18894;DHT22;9579;49.488;8.226;2023-10-19T03:42:31;13.90;99.90
18894;DHT22;9579;49.488;8.226;2023-10-19T03:45:19;14.00;99.90
18894;DHT22;9579;49.488;8.226;2023-10-19T03:48:09;14.00;99.90
18894;DHT22;9579;49.488;8.226;2023-10-19T03:50:57;14.00;99.90
18894;DHT22;9579;49.488;8.226;2023-10-19T03:53:44;14.00;99.90
18894;DHT22;9579;49.488;8.226;2023-10-19T03:56:35;14.10;99.90
18894;DHT22;9579;49.488;8.226;2023-10-19T03:59:23;14.10;99.90
18894;DHT22;9579;49.488;8.226;2023-10-19T04:02:15;14.00;99.90
18894;DHT22;9579;49.488;8.226;2023-10-19T04:05:06;13.90;99.90
18894;DHT22;9579;49.488;8.226;2023-10-19T04:07:55;13.90;99.90
18894;DHT22;9579;49.488;8.226;2023-10-19T04:10:43;13.90;99.90
18894;DHT22;9579;49.488;8.226;2023-10-19T04:13:54;13.80;99.90
18894;DHT22;9579;49.488;8.226;2023-10-19T04:16:42;13.70;99.90
18894;DHT22;9579;49.488;8.226;2023-10-19T04:19:29;13.70;99.90
18894;DHT22;9579;49.488;8.226;2023-10-19T04:22:18;13.70;99.90
18894;DHT22;9579;49.488;8.226;2023-10-19T04:25:09;13.80;99.90
18894;DHT22;9579;49.488;8.226;2023-10-19T04:27:58;13.80;99.90
18894;DHT22;9579;49.488;8.226;2023-10-19T04:30:47;13.80;99.90
18894;DHT22;9579;49.488;8.226;2023-10-19T04:33:34;13.80;99.90
18894;DHT22;9579;49.488;8.226;2023-10-19T04:36:22;13.80;99.90
18894;DHT22;9579;49.488;8.226;2023-10-19T04:39:09;13.80;99.90
18894;DHT22;9579;49.488;8.226;2023-10-19T04:41:59;13.80;99.90
18894;DHT22;9579;49.488;8.226;2023-10-19T04:44:46;13.80;99.90
18894;DHT22;9579;49.488;8.226;2023-10-19T04:47:35;13.80;99.90
18894;DHT22;9579;49.488;8.226;2023-10-19T04:50:22;13.90;99.90
18894;DHT22;9579;49.488;8.226;2023-10-19T04:53:09;13.80;99.90
18894;DHT22;9579;49.488;8.226;2023-10-19T04:55:56;13.80;99.90
18894;DHT22;9579;49.488;8.226;2023-10-19T04:58:43;13.80;99.90
18894;DHT22;9579;49.488;8.226;2023-10-19T05:01:30;13.90;99.90
18894;DHT22;9579;49.488;8.226;2023-10-19T05:04:20;13.90;99.90
18894;DHT22;9579;49.488;8.226;2023-10-19T05:07:07;13.90;99.90
18894;DHT22;9579;49.488;8.226;2023-10-19T05:09:57;14.00;99.90
18894;DHT22;9579;49.488;8.226;2023-10-19T05:12:48;14.00;99.90
18894;DHT22;9579;49.488;8.226;2023-10-19T05:19:46;13.00;99.90
18894;DHT22;9579;49.488;8.226;2023-10-19T05:28:04;13.90;99.90
18894;DHT22;9579;49.488;8.226;2023-10-19T05:33:32;13.90;99.90
18894;DHT22;9579;49.488;8.226;2023-10-19T05:41:50;13.80;99.90
18894;DHT22;9579;49.488;8.226;2023-10-19T05:47:16;13.90;99.90
18894;DHT22;9579;49.488;8.226;2023-10-19T05:52:44;13.90;99.90
18894;DHT22;9579;49.488;8.226;2023-10-19T05:55:34;14.00;99.90
18894;DHT22;9579;49.488;8.226;2023-10-19T05:58:33;13.20;99.90
18894;DHT22;9579;49.488;8.226;2023-10-19T06:01:22;14.00;99.90
18894;DHT22;9579;49.488;8.226;2023-10-19T06:04:33;13.20;99.90
18894;DHT22;9579;49.488;8.226;2023-10-19T06:07:39;13.60;99.90
18894;DHT22;9579;49.488;8.226;2023-10-19T06:10:27;13.20;99.90
18894;DHT22;9579;49.488;8.226;2023-10-19T07:37:41;14.80;99.90
18894;DHT22;9579;49.488;8.226;2023-10-19T09:00:56;15.50;99.90
18894;DHT22;9579;49.488;8.226;2023-10-19T09:03:47;15.40;99.90
18894;DHT22;9579;49.488;8.226;2023-10-19T09:06:34;15.60;99.90
18894;DHT22;9579;49.488;8.226;2023-10-19T09:09:28;15.70;99.90
18894;DHT22;9579;49.488;8.226;2023-10-19T09:12:18;15.80;99.90
18894;DHT22;9579;49.488;8.226;2023-10-19T09:15:21;15.90;99.90
18894;DHT22;9579;49.488;8.226;2023-10-19T09:18:14;17.10;99.90
18894;DHT22;9579;49.488;8.226;2023-10-19T09:21:01;16.30;99.90
18894;DHT22;9579;49.488;8.226;2023-10-19T09:23:54;16.30;99.90
18894;DHT22;9579;49.488;8.226;2023-10-19T09:26:41;16.20;99.90
18894;DHT22;9579;49.488;8.226;2023-10-19T09:29:29;16.40;99.90
18894;DHT22;9579;49.488;8.226;2023-10-19T09:32:17;16.60;99.90
18894;DHT22;9579;49.488;8.226;2023-10-19T09:35:08;16.80;99.90
18894;DHT22;9579;49.488;8.226;2023-10-19T09:37:56;16.90;99.90
18894;DHT22;9579;49.488;8.226;2023-10-19T09:40:43;16.90;99.90
18894;DHT22;9579;49.488;8.226;2023-10-19T09:43:34;17.00;99.90
18894;DHT22;9579;49.488;8.226;2023-10-19T09:46:22;17.10;99.90
18894;DHT22;9579;49.488;8.226;2023-10-19T09:49:10;17.20;99.90
18894;DHT22;9579;49.488;8.226;2023-10-19T09:52:00;17.10;99.90
18894;DHT22;9579;49.488;8.226;2023-10-19T09:54:54;17.20;99.90
18894;DHT22;9579;49.488;8.226;2023-10-19T09:57:48;17.70;99.90
18894;DHT22;9579;49.488;8.226;2023-10-19T10:00:36;17.10;99.90
18894;DHT22;9579;49.488;8.226;2023-10-19T10:03:47;17.00;99.90
18894;DHT22;9579;49.488;8.226;2023-10-19T10:06:59;17.10;99.90
18894;DHT22;9579;49.488;8.226;2023-10-19T10:09:48;17.00;99.90
18894;DHT22;9579;49.488;8.226;2023-10-19T10:12:35;16.90;99.90
18894;DHT22;9579;49.488;8.226;2023-10-19T10:15:38;16.80;99.90
18894;DHT22;9579;49.488;8.226;2023-10-19T10:18:29;17.00;99.90
18894;DHT22;9579;49.488;8.226;2023-10-19T10:21:19;16.90;99.90
18894;DHT22;9579;49.488;8.226;2023-10-19T10:24:11;16.90;99.90
18894;DHT22;9579;49.488;8.226;2023-10-19T10:27:01;16.70;99.90
18894;DHT22;9579;49.488;8.226;2023-10-19T10:29:55;16.70;99.90
18894;DHT22;9579;49.488;8.226;2023-10-19T10:32:46;16.80;99.90
18894;DHT22;9579;49.488;8.226;2023-10-19T10:35:54;16.80;99.90
18894;DHT22;9579;49.488;8.226;2023-10-19T10:38:41;16.80;99.90
18894;DHT22;9579;49.488;8.226;2023-10-19T10:41:30;16.70;99.90
18894;DHT22;9579;49.488;8.226;2023-10-19T10:44:17;16.80;99.90
18894;DHT22;9579;49.488;8.226;2023-10-19T10:47:06;16.70;99.90
18894;DHT22;9579;49.488;8.226;2023-10-19T10:49:56;16.80;99.90
18894;DHT22;9579;49.488;8.226;2023-10-19T10:52:43;16.90;99.90
18894;DHT22;9579;49.488;8.226;2023-10-19T10:55:30;16.90;99.90
18894;DHT22;9579;49.488;8.226;2023-10-19T10:58:19;16.90;99.90
18894;DHT22;9579;49.488;8.226;2023-10-19T11:01:07;16.80;99.90
18894;DHT22;9579;49.488;8.226;2023-10-19T11:04:05;16.80;99.90
18894;DHT22;9579;49.488;8.226;2023-10-19T11:06:53;16.80;99.90
18894;DHT22;9579;49.488;8.226;2023-10-19T11:09:45;16.80;99.90
18894;DHT22;9579;49.488;8.226;2023-10-19T11:12:33;16.70;99.90
18894;DHT22;9579;49.488;8.226;2023-10-19T11:15:22;16.70;99.90
18894;DHT22;9579;49.488;8.226;2023-10-19T11:18:09;16.70;99.90
18894;DHT22;9579;49.488;8.226;2023-10-19T11:20:58;16.70;99.90
18894;DHT22;9579;49.488;8.226;2023-10-19T11:23:50;16.80;99.90
18894;DHT22;9579;49.488;8.226;2023-10-19T11:26:40;16.80;99.90
18894;DHT22;9579;49.488;8.226;2023-10-19T11:29:27;16.90;99.90
18894;DHT22;9579;49.488;8.226;2023-10-19T11:32:16;16.90;99.90
18894;DHT22;9579;49.488;8.226;2023-10-19T11:35:04;17.00;99.90
18894;DHT22;9579;49.488;8.226;2023-10-19T11:37:53;17.00;99.90
18894;DHT22;9579;49.488;8.226;2023-10-19T11:40:40;17.00;99.90
18894;DHT22;9579;49.488;8.226;2023-10-19T11:43:27;17.10;99.90
18894;DHT22;9579;49.488;8.226;2023-10-19T11:46:16;17.10;99.90
18894;DHT22;9579;49.488;8.226;2023-10-19T11:49:05;17.00;99.90
18894;DHT22;9579;49.488;8.226;2023-10-19T11:51:52;17.10;99.90
18894;DHT22;9579;49.488;8.226;2023-10-19T11:54:39;17.10;99.90
18894;DHT22;9579;49.488;8.226;2023-10-19T11:57:26;17.10;99.90
18894;DHT22;9579;49.488;8.226;2023-10-19T12:00:13;17.20;99.90
18894;DHT22;9579;49.488;8.226;2023-10-19T12:03:05;17.10;99.90
18894;DHT22;9579;49.488;8.226;2023-10-19T12:05:55;17.10;99.90
18894;DHT22;9579;49.488;8.226;2023-10-19T12:08:42;17.10;99.90
18894;DHT22;9579;49.488;8.226;2023-10-19T12:11:29;17.10;99.90
18894;DHT22;9579;49.488;8.226;2023-10-19T12:14:16;17.10;99.90
18894;DHT22;9579;49.488;8.226;2023-10-19T12:17:03;17.00;99.90
18894;DHT22;9579;49.488;8.226;2023-10-19T12:19:53;17.00;99.90
18894;DHT22;9579;49.488;8.226;2023-10-19T12:22:42;16.90;99.90
18894;DHT22;9579;49.488;8.226;2023-10-19T12:25:30;16.80;99.90
18894;DHT22;9579;49.488;8.226;2023-10-19T12:28:18;16.80;99.90
18894;DHT22;9579;49.488;8.226;2023-10-19T12:31:05;16.80;99.90
18894;DHT22;9579;49.488;8.226;2023-10-19T12:33:54;16.80;99.90
18894;DHT22;9579;49.488;8.226;2023-10-19T12:36:41;16.80;99.90
18894;DHT22;9579;49.488;8.226;2023-10-19T12:39:33;16.80;99.90
18894;DHT22;9579;49.488;8.226;2023-10-19T12:42:28;16.80;99.90
18894;DHT22;9579;49.488;8.226;2023-10-19T12:45:16;16.80;99.90
18894;DHT22;9579;49.488;8.226;2023-10-19T12:48:06;16.90;99.90
18894;DHT22;9579;49.488;8.226;2023-10-19T12:50:53;17.00;99.90
18894;DHT22;9579;49.488;8.226;2023-10-19T12:53:40;17.10;99.90
18894;DHT22;9579;49.488;8.226;2023-10-19T12:56:28;17.20;99.90
18894;DHT22;9579;49.488;8.226;2023-10-19T12:59:19;17.20;99.90
18894;DHT22;9579;49.488;8.226;2023-10-19T13:02:06;17.20;99.90
18894;DHT22;9579;49.488;8.226;2023-10-19T13:04:55;17.20;99.90
18894;DHT22;9579;49.488;8.226;2023-10-19T13:07:45;17.10;99.90
18894;DHT22;9579;49.488;8.226;2023-10-19T13:10:33;17.10;99.90
18894;DHT22;9579;49.488;8.226;2023-10-19T13:13:21;17.10;99.90
18894;DHT22;9579;49.488;8.226;2023-10-19T13:16:09;17.20;99.90
18894;DHT22;9579;49.488;8.226;2023-10-19T13:18:58;17.10;99.90
18894;DHT22;9579;49.488;8.226;2023-10-19T13:21:54;17.10;99.90
18894;DHT22;9579;49.488;8.226;2023-10-19T13:24:44;17.10;99.90
18894;DHT22;9579;49.488;8.226;2023-10-19T13:27:31;17.20;99.90
18894;DHT22;9579;49.488;8.226;2023-10-19T13:30:20;17.30;99.90
18894;DHT22;9579;49.488;8.226;2023-10-19T13:33:10;17.30;99.90
18894;DHT22;9579;49.488;8.226;2023-10-19T13:35:57;17.30;99.90
18894;DHT22;9579;49.488;8.226;2023-10-19T13:38:44;17.10;99.90
18894;DHT22;9579;49.488;8.226;2023-10-19T13:41:31;17.30;99.90
18894;DHT22;9579;49.488;8.226;2023-10-19T13:44:18;17.20;99.90
18894;DHT22;9579;49.488;8.226;2023-10-19T13:47:09;17.20;99.90
18894;DHT22;9579;49.488;8.226;2023-10-19T13:49:57;17.20;99.90
18894;DHT22;9579;49.488;8.226;2023-10-19T13:52:44;17.10;99.90
18894;DHT22;9579;49.488;8.226;2023-10-19T13:55:31;17.00;99.90
18894;DHT22;9579;49.488;8.226;2023-10-19T13:58:19;17.00;99.90
18894;DHT22;9579;49.488;8.226;2023-10-19T14:01:07;17.00;99.90
18894;DHT22;9579;49.488;8.226;2023-10-19T14:03:56;17.00;99.90
18894;DHT22;9579;49.488;8.226;2023-10-19T14:06:43;17.10;99.90
18894;DHT22;9579;49.488;8.226;2023-10-19T14:09:34;17.20;99.90
18894;DHT22;9579;49.488;8.226;2023-10-19T14:12:21;17.20;99.90
18894;DHT22;9579;49.488;8.226;2023-10-19T14:15:14;17.30;99.90
18894;DHT22;9579;49.488;8.226;2023-10-19T14:18:03;17.40;99.90
18894;DHT22;9579;49.488;8.226;2023-10-19T14:20:52;17.40;99.90
18894;DHT22;9579;49.488;8.226;2023-10-19T14:23:39;17.50;99.90
18894;DHT22;9579;49.488;8.226;2023-10-19T14:26:26;17.50;99.90
18894;DHT22;9579;49.488;8.226;2023-10-19T14:29:13;17.50;99.90
18894;DHT22;9579;49.488;8.226;2023-10-19T14:32:01;17.60;99.90
18894;DHT22;9579;49.488;8.226;2023-10-19T14:34:48;17.80;99.90
18894;DHT22;9579;49.488;8.226;2023-10-19T14:37:38;17.80;99.90
18894;DHT22;9579;49.488;8.226;2023-10-19T14:40:26;17.90;99.90
18894;DHT22;9579;49.488;8.226;2023-10-19T14:43:14;17.90;99.90
18894;DHT22;9579;49.488;8.226;2023-10-19T14:46:02;17.80;99.90
18894;DHT22;9579;49.488;8.226;2023-10-19T14:48:49;17.70;99.90
18894;DHT22;9579;49.488;8.226;2023-10-19T14:51:36;17.50;99.90
18894;DHT22;9579;49.488;8.226;2023-10-19T14:54:24;17.50;99.90
18894;DHT22;9579;49.488;8.226;2023-10-19T14:57:11;17.80;99.90
18894;DHT22;9579;49.488;8.226;2023-10-19T14:59:58;17.80;99.90
18894;DHT22;9579;49.488;8.226;2023-10-19T15:02:54;17.90;99.90
18894;DHT22;9579;49.488;8.226;2023-10-19T15:05:41;18.00;99.90
18894;DHT22;9579;49.488;8.226;2023-10-19T15:08:29;18.10;99.90
18894;DHT22;9579;49.488;8.226;2023-10-19T15:11:22;18.10;99.90
18894;DHT22;9579;49.488;8.226;2023-10-19T15:14:11;18.00;99.90
18894;DHT22;9579;49.488;8.226;2023-10-19T15:16:58;18.20;99.90
18894;DHT22;9579;49.488;8.226;2023-10-19T15:19:45;18.20;99.90
18894;DHT22;9579;49.488;8.226;2023-10-19T15:22:32;18.10;99.90
18894;DHT22;9579;49.488;8.226;2023-10-19T15:25:19;18.10;99.90
18894;DHT22;9579;49.488;8.226;2023-10-19T15:28:08;18.20;99.90
18894;DHT22;9579;49.488;8.226;2023-10-19T15:30:56;18.20;99.90
18894;DHT22;9579;49.488;8.226;2023-10-19T15:33:46;18.10;99.90
18894;DHT22;9579;49.488;8.226;2023-10-19T15:36:33;18.10;99.90
18894;DHT22;9579;49.488;8.226;2023-10-19T15:39:20;18.10;99.90
18894;DHT22;9579;49.488;8.226;2023-10-19T15:42:09;18.00;99.90
18894;DHT22;9579;49.488;8.226;2023-10-19T15:44:58;18.00;99.90
18894;DHT22;9579;49.488;8.226;2023-10-19T15:47:46;17.90;99.90
18894;DHT22;9579;49.488;8.226;2023-10-19T15:50:33;17.90;99.90
18894;DHT22;9579;49.488;8.226;2023-10-19T15:53:20;17.70;99.90
18894;DHT22;9579;49.488;8.226;2023-10-19T15:56:08;17.60;99.90
18894;DHT22;9579;49.488;8.226;2023-10-19T15:58:55;17.50;99.90
18894;DHT22;9579;49.488;8.226;2023-10-19T16:01:43;17.60;99.90
18894;DHT22;9579;49.488;8.226;2023-10-19T16:04:30;17.70;99.90
18894;DHT22;9579;49.488;8.226;2023-10-19T16:07:18;17.60;99.90
18894;DHT22;9579;49.488;8.226;2023-10-19T16:10:06;17.60;99.90
18894;DHT22;9579;49.488;8.226;2023-10-19T16:12:54;17.60;99.90
18894;DHT22;9579;49.488;8.226;2023-10-19T16:15:41;17.60;99.90
18894;DHT22;9579;49.488;8.226;2023-10-19T16:18:30;17.60;99.90
18894;DHT22;9579;49.488;8.226;2023-10-19T16:21:18;17.60;99.90
18894;DHT22;9579;49.488;8.226;2023-10-19T16:24:06;17.60;99.90
18894;DHT22;9579;49.488;8.226;2023-10-19T16:26:53;17.60;99.90
18894;DHT22;9579;49.488;8.226;2023-10-19T16:29:42;17.70;99.90
18894;DHT22;9579;49.488;8.226;2023-10-19T16:32:29;17.80;99.90
18894;DHT22;9579;49.488;8.226;2023-10-19T16:35:21;17.60;99.90
18894;DHT22;9579;49.488;8.226;2023-10-19T16:38:08;17.70;99.90
18894;DHT22;9579;49.488;8.226;2023-10-19T16:41:01;17.70;99.90
18894;DHT22;9579;49.488;8.226;2023-10-19T16:43:48;17.70;99.90
18894;DHT22;9579;49.488;8.226;2023-10-19T16:46:35;17.70;99.90
18894;DHT22;9579;49.488;8.226;2023-10-19T16:49:23;17.70;99.90
18894;DHT22;9579;49.488;8.226;2023-10-19T16:52:11;17.70;99.90
18894;DHT22;9579;49.488;8.226;2023-10-19T16:54:58;17.70;99.90
18894;DHT22;9579;49.488;8.226;2023-10-19T16:57:45;17.80;99.90
18894;DHT22;9579;49.488;8.226;2023-10-19T17:00:32;17.70;99.90
18894;DHT22;9579;49.488;8.226;2023-10-19T17:03:26;17.70;99.90
18894;DHT22;9579;49.488;8.226;2023-10-19T17:06:15;17.70;99.90
18894;DHT22;9579;49.488;8.226;2023-10-19T17:09:12;17.80;99.90
18894;DHT22;9579;49.488;8.226;2023-10-19T17:12:03;17.80;99.90
18894;DHT22;9579;49.488;8.226;2023-10-19T17:14:50;17.70;99.90
18894;DHT22;9579;49.488;8.226;2023-10-19T17:17:38;17.70;99.90
18894;DHT22;9579;49.488;8.226;2023-10-19T17:20:25;17.70;99.90
18894;DHT22;9579;49.488;8.226;2023-10-19T17:23:13;17.70;99.90
18894;DHT22;9579;49.488;8.226;2023-10-19T17:26:01;17.70;99.90
18894;DHT22;9579;49.488;8.226;2023-10-19T17:28:48;17.70;99.90
18894;DHT22;9579;49.488;8.226;2023-10-19T17:31:36;17.70;99.90
18894;DHT22;9579;49.488;8.226;2023-10-19T17:34:23;17.70;99.90
18894;DHT22;9579;49.488;8.226;2023-10-19T17:37:10;17.70;99.90
18894;DHT22;9579;49.488;8.226;2023-10-19T17:39:58;17.60;99.90
18894;DHT22;9579;49.488;8.226;2023-10-19T17:42:47;17.70;99.90
18894;DHT22;9579;49.488;8.226;2023-10-19T17:45:34;17.60;99.90
18894;DHT22;9579;49.488;8.226;2023-10-19T17:48:21;17.80;99.90
18894;DHT22;9579;49.488;8.226;2023-10-19T17:51:12;17.50;99.90
18894;DHT22;9579;49.488;8.226;2023-10-19T17:54:00;17.50;99.90
18894;DHT22;9579;49.488;8.226;2023-10-19T17:56:48;17.50;99.90
18894;DHT22;9579;49.488;8.226;2023-10-19T17:59:36;17.40;99.90
18894;DHT22;9579;49.488;8.226;2023-10-19T18:02:23;17.50;99.90
18894;DHT22;9579;49.488;8.226;2023-10-19T18:05:11;17.40;99.90
18894;DHT22;9579;49.488;8.226;2023-10-19T18:08:00;17.30;99.90
18894;DHT22;9579;49.488;8.226;2023-10-19T18:10:47;17.40;99.90
18894;DHT22;9579;49.488;8.226;2023-10-19T18:13:34;17.30;99.90
18894;DHT22;9579;49.488;8.226;2023-10-19T18:16:22;17.40;99.90
18894;DHT22;9579;49.488;8.226;2023-10-19T18:19:10;17.50;99.90
18894;DHT22;9579;49.488;8.226;2023-10-19T18:21:58;17.30;99.90
18894;DHT22;9579;49.488;8.226;2023-10-19T18:24:45;17.30;99.90
18894;DHT22;9579;49.488;8.226;2023-10-19T18:27:32;17.60;99.90
18894;DHT22;9579;49.488;8.226;2023-10-19T18:30:19;17.30;99.90
18894;DHT22;9579;49.488;8.226;2023-10-19T18:33:07;17.30;99.90
18894;DHT22;9579;49.488;8.226;2023-10-19T18:35:58;17.30;99.90
18894;DHT22;9579;49.488;8.226;2023-10-19T18:38:45;17.40;99.90
18894;DHT22;9579;49.488;8.226;2023-10-19T18:41:34;17.20;99.90
18894;DHT22;9579;49.488;8.226;2023-10-19T18:44:21;17.40;99.90
18894;DHT22;9579;49.488;8.226;2023-10-19T18:47:08;17.20;99.90
18894;DHT22;9579;49.488;8.226;2023-10-19T18:49:56;17.30;99.90
18894;DHT22;9579;49.488;8.226;2023-10-19T18:52:43;17.30;99.90
18894;DHT22;9579;49.488;8.226;2023-10-19T18:55:30;17.30;99.90
18894;DHT22;9579;49.488;8.226;2023-10-19T18:58:18;17.30;99.90
18894;DHT22;9579;49.488;8.226;2023-10-19T19:01:06;17.30;99.90
18894;DHT22;9579;49.488;8.226;2023-10-19T19:03:55;17.40;99.90
18894;DHT22;9579;49.488;8.226;2023-10-19T19:06:43;17.40;99.90
18894;DHT22;9579;49.488;8.226;2023-10-19T19:09:30;17.40;99.90
18894;DHT22;9579;49.488;8.226;2023-10-19T19:12:18;17.40;99.90
18894;DHT22;9579;49.488;8.226;2023-10-19T19:15:06;17.50;99.90
18894;DHT22;9579;49.488;8.226;2023-10-19T19:17:56;17.40;99.90
18894;DHT22;9579;49.488;8.226;2023-10-19T19:20:44;17.30;99.90
18894;DHT22;9579;49.488;8.226;2023-10-19T19:23:32;17.30;99.90
18894;DHT22;9579;49.488;8.226;2023-10-19T19:26:19;17.30;99.90
18894;DHT22;9579;49.488;8.226;2023-10-19T19:29:06;17.30;99.90
18894;DHT22;9579;49.488;8.226;2023-10-19T19:31:53;17.40;99.90
18894;DHT22;9579;49.488;8.226;2023-10-19T19:34:40;17.30;99.90
18894;DHT22;9579;49.488;8.226;2023-10-19T19:37:29;17.40;99.90
18894;DHT22;9579;49.488;8.226;2023-10-19T19:40:22;17.40;99.90
18894;DHT22;9579;49.488;8.226;2023-10-19T19:43:10;17.30;99.90
18894;DHT22;9579;49.488;8.226;2023-10-19T19:45:57;17.30;99.90
18894;DHT22;9579;49.488;8.226;2023-10-19T19:48:44;17.30;99.90
18894;DHT22;9579;49.488;8.226;2023-10-19T19:51:31;17.70;99.90
18894;DHT22;9579;49.488;8.226;2023-10-19T19:54:19;17.40;99.90
18894;DHT22;9579;49.488;8.226;2023-10-19T19:57:09;17.40;99.90
18894;DHT22;9579;49.488;8.226;2023-10-19T19:59:56;17.40;99.90
18894;DHT22;9579;49.488;8.226;2023-10-19T20:02:44;17.40;99.90
18894;DHT22;9579;49.488;8.226;2023-10-19T20:05:31;17.40;99.90
18894;DHT22;9579;49.488;8.226;2023-10-19T20:08:19;17.30;99.90
18894;DHT22;9579;49.488;8.226;2023-10-19T20:11:06;18.10;99.90
18894;DHT22;9579;49.488;8.226;2023-10-19T20:13:54;17.10;99.90
18894;DHT22;9579;49.488;8.226;2023-10-19T20:16:41;17.00;99.90
18894;DHT22;9579;49.488;8.226;2023-10-19T20:19:30;17.10;99.90
18894;DHT22;9579;49.488;8.226;2023-10-19T20:22:17;17.10;99.90
18894;DHT22;9579;49.488;8.226;2023-10-19T20:25:05;17.20;99.90
18894;DHT22;9579;49.488;8.226;2023-10-19T20:27:52;17.10;99.90
18894;DHT22;9579;49.488;8.226;2023-10-19T20:30:40;17.20;99.90
18894;DHT22;9579;49.488;8.226;2023-10-19T20:33:28;17.20;99.90
18894;DHT22;9579;49.488;8.226;2023-10-19T20:36:15;17.20;99.90
18894;DHT22;9579;49.488;8.226;2023-10-19T20:39:02;17.20;99.90
18894;DHT22;9579;49.488;8.226;2023-10-19T20:41:49;17.30;99.90
18894;DHT22;9579;49.488;8.226;2023-10-19T20:44:37;17.20;99.90
18894;DHT22;9579;49.488;8.226;2023-10-19T20:47:28;17.20;99.90
18894;DHT22;9579;49.488;8.226;2023-10-19T20:50:15;17.40;99.90
18894;DHT22;9579;49.488;8.226;2023-10-19T20:53:02;17.20;99.90
18894;DHT22;9579;49.488;8.226;2023-10-19T20:55:49;17.20;99.90
18894;DHT22;9579;49.488;8.226;2023-10-19T20:58:36;17.20;99.90
18894;DHT22;9579;49.488;8.226;2023-10-19T21:01:23;17.20;99.90
18894;DHT22;9579;49.488;8.226;2023-10-19T21:04:11;17.20;99.90
18894;DHT22;9579;49.488;8.226;2023-10-19T21:06:58;17.20;99.90
18894;DHT22;9579;49.488;8.226;2023-10-19T21:09:46;17.10;99.90
18894;DHT22;9579;49.488;8.226;2023-10-19T21:12:33;17.00;99.90